Time;durP1;ratioP1;P1;durP2;ratioP2;P2;SDS_P1;SDS_P2;PMS_P1;PMS_P2;Temp;Humidity;BMP_temperature;BMP_pressure;BME280_temperature;BME280_humidity;BME280_pressure;Samples;Min_cycle;Max_cycle;Signal;HPM_P1;HPM_P2
2023/04/24 00:00:40;;;;;;;0.90;0.70;;;11.10;99.90;;;;;;5028270;28;20220;-83
2023/04/24 00:03:07;;;;;;;2.10;0.45;;;11.10;99.90;;;;;;5030323;28;20252;-83
2023/04/24 00:05:32;;;;;;;1.02;0.85;;;11.10;99.90;;;;;;5029921;28;20209;-83
2023/04/24 00:07:58;;;;;;;1.57;0.97;;;11.10;99.90;;;;;;5026168;28;20221;-83
2023/04/24 00:10:24;;;;;;;0.70;0.63;;;;;;;;;;5027948;28;20914;-82
2023/04/24 00:12:50;;;;;;;0.60;0.53;;;11.10;99.90;;;;;;5031415;28;20174;-82
2023/04/24 00:15:15;;;;;;;1.80;0.63;;;11.10;99.90;;;;;;5028128;28;21052;-82
2023/04/24 00:17:41;;;;;;;2.50;0.80;;;11.00;99.90;;;;;;5030543;28;20208;-83
2023/04/24 00:20:07;;;;;;;1.23;0.67;;;11.00;99.90;;;;;;5028714;28;20814;-83
2023/04/24 00:22:33;;;;;;;2.40;0.90;;;11.00;99.90;;;;;;5029049;28;20187;-83
2023/04/24 00:24:58;;;;;;;0.80;0.60;;;11.00;99.90;;;;;;5026788;28;20210;-83
2023/04/24 00:27:24;;;;;;;1.00;0.80;;;11.00;99.90;;;;;;5019082;28;20182;-83
2023/04/24 00:29:50;;;;;;;1.33;0.80;;;;;;;;;;5015133;28;20708;-83
2023/04/24 00:32:15;;;;;;;2.53;0.90;;;11.10;99.90;;;;;;5026900;28;20220;-83
2023/04/24 00:34:42;;;;;;;0.93;0.83;;;11.10;99.90;;;;;;5024917;28;20209;-83
2023/04/24 00:37:08;;;;;;;0.82;0.70;;;11.10;99.90;;;;;;5027521;28;20193;-83
2023/04/24 00:39:33;;;;;;;3.53;0.90;;;11.20;99.90;;;;;;5028892;28;20186;-83
2023/04/24 00:41:59;;;;;;;1.63;0.87;;;11.20;99.90;;;;;;5029389;28;20182;-83
2023/04/24 00:44:25;;;;;;;0.70;0.70;;;11.20;99.90;;;;;;5028856;28;20173;-83
2023/04/24 00:46:54;;;;;;;0.73;0.73;;;11.30;99.90;;;;;;5026020;28;20194;-82
2023/04/24 00:49:20;;;;;;;2.35;0.90;;;11.30;99.90;;;;;;5028672;28;21031;-83
2023/04/24 00:51:46;;;;;;;4.88;0.77;;;11.30;99.90;;;;;;5027791;28;20715;-82
2023/04/24 00:54:12;;;;;;;2.20;0.83;;;11.40;99.90;;;;;;5028701;28;20209;-83
2023/04/24 00:56:39;;;;;;;1.77;1.13;;;11.40;99.90;;;;;;5026838;28;20190;-83
2023/04/24 00:59:04;;;;;;;1.75;0.50;;;11.40;99.90;;;;;;5023803;28;20213;-83
2023/04/24 01:01:30;;;;;;;3.30;0.70;;;11.40;99.90;;;;;;5025083;28;20185;-83
2023/04/24 01:03:58;;;;;;;2.27;0.90;;;11.40;99.90;;;;;;5023005;28;20179;-83
2023/04/24 01:06:28;;;;;;;1.55;0.80;;;11.40;99.90;;;;;;5023422;28;20201;-82
2023/04/24 01:08:55;;;;;;;1.15;1.00;;;11.40;99.90;;;;;;5009565;28;20253;-83
2023/04/24 01:11:21;;;;;;;1.70;0.80;;;11.50;99.90;;;;;;5023436;28;20185;-83
2023/04/24 01:13:47;;;;;;;1.42;0.70;;;11.50;99.90;;;;;;5014573;28;20206;-83
2023/04/24 01:16:14;;;;;;;1.13;0.90;;;11.50;99.90;;;;;;5022955;28;20208;-83
2023/04/24 01:18:40;;;;;;;3.42;0.60;;;11.40;99.90;;;;;;5022566;28;20718;-83
2023/04/24 01:21:08;;;;;;;1.17;0.80;;;11.40;99.90;;;;;;5021829;28;20178;-83
2023/04/24 01:23:35;;;;;;;4.03;1.00;;;;;;;;;;5024531;28;20196;-82
2023/04/24 01:26:00;;;;;;;2.45;0.80;;;11.30;99.90;;;;;;5025145;28;20262;-82
2023/04/24 01:28:26;;;;;;;0.70;0.70;;;11.20;99.90;;;;;;5027725;28;20216;-83
2023/04/24 01:30:53;;;;;;;0.80;0.60;;;11.20;99.90;;;;;;5024452;28;20175;-83
2023/04/24 01:33:20;;;;;;;0.82;0.70;;;11.00;99.90;;;;;;5027229;28;20528;-82
2023/04/24 01:35:46;;;;;;;0.60;0.40;;;11.00;99.90;;;;;;5004835;28;20590;-83
2023/04/24 01:38:12;;;;;;;1.87;0.77;;;11.00;99.90;;;;;;5025227;28;20178;-83
2023/04/24 01:40:38;;;;;;;1.47;0.77;;;;;;;;;;5012033;28;20178;-83
2023/04/24 01:43:03;;;;;;;3.90;0.68;;;11.00;99.90;;;;;;5026921;28;20450;-83
2023/04/24 01:45:29;;;;;;;3.80;0.60;;;;;;;;;;5016813;28;20310;-84
2023/04/24 01:47:56;;;;;;;0.80;0.63;;;11.00;99.90;;;;;;5032184;28;20188;-84
2023/04/24 01:50:21;;;;;;;1.67;0.77;;;11.10;99.90;;;;;;5029773;28;20217;-83
2023/04/24 01:52:47;;;;;;;0.93;0.70;;;11.10;99.90;;;;;;5011353;28;20217;-83
2023/04/24 01:55:12;;;;;;;2.37;0.80;;;11.00;99.90;;;;;;5027553;28;20217;-83
2023/04/24 01:57:38;;;;;;;0.80;0.50;;;11.00;99.90;;;;;;5015257;28;20250;-83
2023/04/24 02:00:06;;;;;;;0.97;0.40;;;11.00;99.90;;;;;;5028169;28;20177;-83
2023/04/24 02:02:32;;;;;;;0.80;0.73;;;11.00;99.90;;;;;;5028255;28;20624;-83
2023/04/24 02:04:57;;;;;;;2.13;0.70;;;10.90;99.90;;;;;;5029534;28;20215;-83
2023/04/24 02:07:23;;;;;;;1.17;0.80;;;10.90;99.90;;;;;;5011531;28;20197;-83
2023/04/24 02:09:49;;;;;;;1.93;0.80;;;10.90;99.90;;;;;;5007499;28;20174;-82
2023/04/24 02:12:17;;;;;;;0.80;0.63;;;10.80;99.90;;;;;;5028657;28;20186;-83
2023/04/24 02:14:43;;;;;;;1.02;0.60;;;10.80;99.90;;;;;;5027996;28;20209;-83
2023/04/24 02:17:09;;;;;;;3.85;0.70;;;10.90;99.90;;;;;;5027834;28;20227;-83
2023/04/24 02:19:35;;;;;;;0.83;0.60;;;10.90;99.90;;;;;;5030003;28;20253;-83
2023/04/24 02:22:00;;;;;;;2.30;0.63;;;11.00;99.90;;;;;;5012035;28;21008;-83
2023/04/24 02:24:26;;;;;;;6.90;0.80;;;11.00;99.90;;;;;;5011517;28;20175;-83
2023/04/24 02:26:52;;;;;;;5.13;0.97;;;;;;;;;;5029700;28;20624;-83
2023/04/24 02:29:17;;;;;;;1.80;0.93;;;11.00;99.90;;;;;;5030970;28;20182;-83
2023/04/24 02:31:43;;;;;;;1.50;0.80;;;10.90;99.90;;;;;;5028687;28;20480;-83
2023/04/24 02:34:08;;;;;;;0.70;0.60;;;10.80;99.90;;;;;;5028555;28;20277;-83
2023/04/24 02:36:34;;;;;;;0.93;0.60;;;10.70;99.90;;;;;;5026853;28;20181;-83
2023/04/24 02:39:00;;;;;;;0.77;0.60;;;10.80;99.90;;;;;;5012485;28;20591;-83
2023/04/24 02:41:31;;;;;;;1.95;0.80;;;10.80;99.90;;;;;;5013921;28;21882;-83
2023/04/24 02:43:56;;;;;;;0.98;0.40;;;10.80;99.90;;;;;;5027237;28;20178;-83
2023/04/24 02:46:22;;;;;;;4.63;0.90;;;10.80;99.90;;;;;;5007460;28;20217;-83
2023/04/24 02:48:47;;;;;;;2.00;0.67;;;10.80;99.90;;;;;;5025328;28;20185;-83
2023/04/24 02:51:13;;;;;;;0.40;0.40;;;;;;;;;;5026885;28;20182;-83
2023/04/24 02:53:38;;;;;;;1.00;0.70;;;10.70;99.90;;;;;;5024028;28;20222;-84
2023/04/24 02:56:05;;;;;;;2.20;1.20;;;;;;;;;;5026685;28;20576;-83
2023/04/24 02:58:30;;;;;;;1.88;0.90;;;10.70;99.90;;;;;;5027188;28;20177;-83
2023/04/24 03:00:55;;;;;;;1.20;0.63;;;10.80;99.90;;;;;;5024041;28;20186;-83
2023/04/24 03:03:22;;;;;;;1.17;0.77;;;10.80;99.90;;;;;;5009318;28;20190;-83
2023/04/24 03:05:47;;;;;;;1.25;0.70;;;10.80;99.90;;;;;;5025493;28;20209;-84
2023/04/24 03:08:14;;;;;;;0.50;0.50;;;10.70;99.90;;;;;;5025345;28;20221;-84
2023/04/24 03:10:40;;;;;;;2.35;0.73;;;10.90;99.90;;;;;;5006488;28;20177;-83
2023/04/24 03:13:05;;;;;;;2.87;0.60;;;10.90;99.90;;;;;;5013348;28;20206;-84
2023/04/24 03:15:31;;;;;;;1.00;0.70;;;10.90;99.90;;;;;;5021725;28;20778;-84
2023/04/24 03:17:56;;;;;;;2.33;0.93;;;10.80;99.90;;;;;;5024317;28;20178;-84
2023/04/24 03:20:22;;;;;;;1.00;0.60;;;10.80;99.90;;;;;;5024944;28;20199;-84
2023/04/24 03:22:48;;;;;;;3.70;1.13;;;10.80;99.90;;;;;;5024900;28;20189;-84
2023/04/24 03:25:13;;;;;;;0.90;0.67;;;;;;;;;;5021112;28;20296;-84
2023/04/24 03:27:39;;;;;;;1.33;0.70;;;10.80;99.90;;;;;;5011131;28;20178;-84
2023/04/24 03:30:06;;;;;;;1.80;1.20;;;10.90;99.90;;;;;;5027957;28;20872;-84
2023/04/24 03:32:32;;;;;;;3.05;1.05;;;10.80;99.90;;;;;;5028545;28;20595;-84
2023/04/24 03:34:58;;;;;;;1.23;0.80;;;;;;;;;;5022531;28;20230;-84
2023/04/24 03:37:26;;;;;;;1.80;0.80;;;10.80;99.90;;;;;;5008950;28;20220;-84
2023/04/24 03:39:52;;;;;;;3.70;0.70;;;;;;;;;;5024780;28;20598;-84
2023/04/24 03:42:18;;;;;;;1.33;0.57;;;10.80;99.90;;;;;;5009595;28;20174;-84
2023/04/24 03:44:43;;;;;;;2.20;0.60;;;10.90;99.90;;;;;;5025299;28;20214;-83
2023/04/24 03:47:09;;;;;;;1.50;0.77;;;;;;;;;;5011126;28;20178;-83
2023/04/24 03:49:35;;;;;;;1.57;1.10;;;;;;;;;;5027875;28;20182;-82
2023/04/24 03:52:01;;;;;;;4.67;1.70;;;;;;;;;;5025253;28;20974;-83
2023/04/24 03:54:27;;;;;;;2.45;1.00;;;10.70;99.90;;;;;;5024993;28;20560;-83
2023/04/24 03:56:53;;;;;;;1.60;0.90;;;10.70;99.90;;;;;;5026510;28;20282;-83
2023/04/24 03:59:18;;;;;;;1.37;1.17;;;10.70;99.90;;;;;;5024464;28;20181;-83
2023/04/24 04:01:45;;;;;;;2.90;1.30;;;10.60;99.90;;;;;;5026828;28;20178;-83
2023/04/24 04:04:11;;;;;;;0.80;0.60;;;10.20;99.90;;;;;;5029958;28;20175;-83
2023/04/24 04:06:37;;;;;;;2.70;1.17;;;;;;;;;;5032167;28;20189;-83
2023/04/24 04:09:03;;;;;;;0.70;0.70;;;10.00;99.90;;;;;;5013424;28;20817;-83
2023/04/24 04:11:30;;;;;;;2.10;1.00;;;;;;;;;;5024891;28;20189;-85
2023/04/24 04:13:56;;;;;;;1.30;1.10;;;;;;;;;;5022908;28;20453;-84
2023/04/24 04:16:22;;;;;;;1.58;1.17;;;9.50;99.90;;;;;;5025374;28;20225;-87
2023/04/24 04:18:48;;;;;;;1.10;1.00;;;9.40;99.90;;;;;;5008758;28;20565;-86
2023/04/24 04:21:14;;;;;;;2.07;1.30;;;9.40;99.90;;;;;;5024622;28;20193;-84
2023/04/24 04:23:40;;;;;;;1.13;1.03;;;;;;;;;;5024241;28;20926;-84
2023/04/24 04:26:06;;;;;;;1.25;1.15;;;9.40;99.90;;;;;;5029132;28;20198;-85
2023/04/24 04:28:32;;;;;;;1.23;1.10;;;9.40;99.90;;;;;;5020449;28;20182;-85
2023/04/24 04:30:57;;;;;;;1.27;1.17;;;9.40;99.90;;;;;;5021903;28;20941;-85
2023/04/24 04:33:25;;;;;;;1.13;1.05;;;9.40;99.90;;;;;;5026485;28;20477;-85
2023/04/24 04:35:56;;;;;;;1.48;1.00;;;9.30;99.90;;;;;;5024648;28;20683;-85
2023/04/24 04:38:22;;;;;;;1.35;1.25;;;9.20;99.90;;;;;;5026484;28;20228;-83
2023/04/24 04:40:47;;;;;;;2.20;1.73;;;;;;;;;;5005199;28;20273;-83
2023/04/24 04:43:14;;;;;;;3.80;1.13;;;9.20;99.90;;;;;;5027149;28;20659;-85
2023/04/24 04:45:41;;;;;;;2.70;1.25;;;9.10;99.90;;;;;;5026463;28;20456;-83
2023/04/24 04:48:08;;;;;;;4.78;1.60;;;;;;;;;;5023295;28;20210;-85
2023/04/24 04:50:34;;;;;;;5.00;1.23;;;;;;;;;;5023240;28;20194;-84
2023/04/24 04:53:00;;;;;;;2.00;1.03;;;9.20;99.90;;;;;;5008790;28;20190;-84
2023/04/24 04:55:25;;;;;;;1.37;1.20;;;9.10;99.90;;;;;;5007351;28;20468;-83
2023/04/24 04:57:52;;;;;;;1.40;1.27;;;;;;;;;;5022374;28;20194;-83
2023/04/24 05:00:17;;;;;;;2.90;1.35;;;9.10;99.90;;;;;;5019398;28;20522;-86
2023/04/24 05:02:44;;;;;;;1.37;1.27;;;;;;;;;;5005923;28;20184;-84
2023/04/24 05:05:09;;;;;;;1.77;1.48;;;9.00;99.90;;;;;;5022033;28;20452;-84
2023/04/24 05:07:35;;;;;;;1.33;1.13;;;;;;;;;;5022630;28;20190;-84
2023/04/24 05:10:02;;;;;;;1.50;1.33;;;8.80;99.90;;;;;;5019359;28;20175;-83
2023/04/24 05:12:28;;;;;;;2.97;1.70;;;8.80;99.90;;;;;;5023134;28;20193;-83
2023/04/24 05:14:54;;;;;;;6.70;2.30;;;;;;;;;;5024486;28;20221;-83
2023/04/24 05:17:19;;;;;;;1.50;1.23;;;8.80;99.90;;;;;;5022710;28;20623;-83
2023/04/24 05:19:46;;;;;;;2.27;1.40;;;;;;;;;;5006522;28;20431;-83
2023/04/24 05:22:11;;;;;;;2.47;1.85;;;8.80;99.90;;;;;;5008657;28;20631;-83
2023/04/24 05:24:38;;;;;;;2.00;1.80;;;;;;;;;;5023641;28;20213;-83
2023/04/24 05:27:07;;;;;;;2.20;2.00;;;;;;;;;;5025609;28;20186;-82
2023/04/24 05:29:33;;;;;;;4.65;1.75;;;;;;;;;;5019674;28;20277;-84
2023/04/24 05:32:00;;;;;;;2.50;2.17;;;11.60;99.90;;;;;;5020194;28;20189;-84
2023/04/24 05:34:26;;;;;;;2.38;2.15;;;;;;;;;;5017642;28;20266;-84
2023/04/24 05:36:52;;;;;;;2.08;1.90;;;;;;;;;;5021942;28;20186;-84
2023/04/24 05:39:17;;;;;;;3.60;1.75;;;11.60;99.90;;;;;;5019107;28;20184;-84
2023/04/24 05:41:44;;;;;;;3.37;2.40;;;;;;;;;;5018145;28;20701;-84
2023/04/24 05:44:12;;;;;;;5.75;2.35;;;10.90;99.90;;;;;;5020976;28;20293;-84
2023/04/24 05:46:38;;;;;;;2.67;2.47;;;;;;;;;;5022661;28;20181;-84
2023/04/24 05:49:04;;;;;;;4.00;2.27;;;;;;;;;;5023786;28;20276;-84
2023/04/24 05:51:31;;;;;;;4.63;2.47;;;;;;;;;;5018507;28;20436;-84
2023/04/24 05:53:57;;;;;;;4.30;1.67;;;;;;;;;;5017122;28;20472;-82
2023/04/24 05:56:23;;;;;;;4.50;2.92;;;;;;;;;;5020313;28;20286;-82
2023/04/24 05:58:49;;;;;;;2.50;2.00;;;;;;;;;;5019235;28;20174;-84
2023/04/24 06:01:15;;;;;;;2.97;2.50;;;;;;;;;;5017592;28;20440;-84
2023/04/24 06:03:41;;;;;;;2.70;1.73;;;18.50;99.90;;;;;;5020681;28;20539;-84
2023/04/24 06:06:08;;;;;;;1.63;1.30;;;;;;;;;;5018532;28;21004;-83
2023/04/24 06:08:34;;;;;;;3.10;1.97;;;;;;;;;;5018219;28;20435;-83
2023/04/24 06:11:00;;;;;;;3.97;2.30;;;;;;;;;;5008437;28;20429;-81
2023/04/24 06:13:26;;;;;;;3.30;2.60;;;;;;;;;;5017156;28;20472;-83
2023/04/24 06:15:51;;;;;;;1.77;1.57;;;;;;;;;;5015570;28;20564;-84
2023/04/24 06:18:17;;;;;;;2.00;1.73;;;;;;;;;;5018857;28;21184;-84
2023/04/24 06:20:43;;;;;;;2.20;1.90;;;;;;;;;;5018962;28;20436;-84
2023/04/24 06:23:09;;;;;;;2.63;2.10;;;17.80;99.90;;;;;;5017130;28;20470;-85
2023/04/24 06:25:35;;;;;;;2.00;1.80;;;17.80;99.90;;;;;;5019183;28;20449;-85
2023/04/24 06:28:01;;;;;;;2.33;2.00;;;16.70;99.90;;;;;;5022032;28;20183;-82
2023/04/24 06:30:28;;;;;;;2.03;1.83;;;17.60;99.90;;;;;;5024958;28;20847;-85
2023/04/24 06:32:53;;;;;;;2.27;1.70;;;;;;;;;;5023045;28;20478;-85
2023/04/24 06:35:19;;;;;;;2.40;2.10;;;18.60;99.90;;;;;;5023273;28;20445;-85
2023/04/24 06:37:45;;;;;;;2.17;1.70;;;;;;;;;;5008423;28;20440;-82
2023/04/24 06:40:11;;;;;;;3.30;1.87;;;;;;;;;;5022379;28;20216;-84
2023/04/24 06:42:37;;;;;;;2.87;2.27;;;;;;;;;;5024398;28;20432;-84
2023/04/24 06:45:03;;;;;;;2.37;1.70;;;19.10;99.90;;;;;;5020306;28;20445;-85
2023/04/24 06:47:29;;;;;;;2.67;1.63;;;19.40;99.90;;;;;;5021748;28;20433;-83
2023/04/24 06:49:55;;;;;;;1.83;1.70;;;18.10;99.90;;;;;;5019371;28;20437;-84
2023/04/24 06:52:21;;;;;;;3.97;2.30;;;;;;;;;;5019793;28;20428;-81
2023/04/24 06:54:47;;;;;;;4.40;3.00;;;;;;;;;;5021386;28;20214;-82
2023/04/24 06:57:13;;;;;;;3.00;2.07;;;15.60;99.90;;;;;;5006306;28;20969;-84
2023/04/24 06:59:39;;;;;;;4.47;2.53;;;;;;;;;;5025003;28;20434;-83
2023/04/24 07:02:05;;;;;;;4.10;1.93;;;;;;;;;;5020877;28;20214;-84
2023/04/24 07:04:31;;;;;;;3.07;2.27;;;;;;;;;;5019662;28;20471;-84
2023/04/24 07:06:57;;;;;;;4.47;2.10;;;;;;;;;;5019549;28;20489;-84
2023/04/24 07:09:25;;;;;;;6.53;2.03;;;14.90;99.90;;;;;;5020402;28;21084;-84
2023/04/24 07:11:51;;;;;;;3.53;1.70;;;;;;;;;;5021425;28;21035;-83
2023/04/24 07:14:17;;;;;;;2.80;2.00;;;;;;;;;;5021539;28;20460;-84
2023/04/24 07:16:43;;;;;;;2.70;1.83;;;15.50;99.90;;;;;;5004015;28;20437;-84
2023/04/24 07:19:09;;;;;;;3.77;1.73;;;;;;;;;;5008572;28;20428;-83
2023/04/24 07:21:35;;;;;;;3.07;1.90;;;14.10;99.90;;;;;;5004263;28;20215;-83
2023/04/24 07:24:01;;;;;;;2.13;1.83;;;13.90;99.90;;;;;;5021346;28;20468;-82
2023/04/24 07:26:28;;;;;;;5.13;1.55;;;13.50;99.90;;;;;;5026130;28;20769;-83
2023/04/24 07:28:54;;;;;;;2.67;1.73;;;12.60;99.90;;;;;;5023621;28;20202;-83
2023/04/24 07:31:20;;;;;;;3.20;2.00;;;12.40;99.90;;;;;;5023959;28;20313;-83
2023/04/24 07:33:46;;;;;;;1.25;1.15;;;11.90;99.90;;;;;;5016319;28;20201;-84
2023/04/24 07:36:15;;;;;;;5.53;2.13;;;;;;;;;;5010606;28;20202;-83
2023/04/24 07:38:42;;;;;;;6.72;1.80;;;12.20;99.90;;;;;;5023453;28;20183;-82
2023/04/24 07:41:08;;;;;;;2.30;1.95;;;13.10;99.90;;;;;;5023219;28;20269;-83
2023/04/24 07:43:34;;;;;;;4.83;2.27;;;13.00;99.90;;;;;;5023333;28;20220;-83
2023/04/24 07:46:00;;;;;;;2.47;1.52;;;;;;;;;;5009419;28;20206;-83
2023/04/24 07:48:26;;;;;;;2.90;1.43;;;;;;;;;;5006979;28;20480;-83
2023/04/24 07:50:53;;;;;;;3.17;1.20;;;13.60;99.90;;;;;;5023782;28;21079;-83
2023/04/24 07:53:19;;;;;;;177.10;24.57;;;;;;;;;;5004787;28;21103;-83
2023/04/24 07:55:45;;;;;;;3.20;1.13;;;;;;;;;;5019044;28;20500;-83
2023/04/24 07:58:10;;;;;;;1.38;1.25;;;13.90;99.90;;;;;;5019817;28;20951;-83
2023/04/24 08:00:36;;;;;;;6.33;2.33;;;12.90;99.90;;;;;;5020437;28;20253;-83
2023/04/24 08:03:02;;;;;;;2.17;1.47;;;;;;;;;;5021108;28;20205;-82
2023/04/24 08:05:28;;;;;;;7.70;2.00;;;13.60;99.90;;;;;;5021980;28;20610;-81
2023/04/24 08:07:54;;;;;;;2.30;1.40;;;;;;;;;;5004788;28;20600;-85
2023/04/24 08:10:24;;;;;;;1.17;0.98;;;13.00;99.90;;;;;;5012653;28;20964;-82
2023/04/24 08:12:49;;;;;;;2.20;1.50;;;13.00;99.90;;;;;;5020783;28;20189;-82
2023/04/24 08:15:15;;;;;;;2.53;1.77;;;;;;;;;;5019097;28;20213;-82
2023/04/24 08:17:41;;;;;;;1.73;1.33;;;16.40;99.90;;;;;;5002645;28;20182;-82
2023/04/24 08:20:14;;;;;;;2.40;1.30;;;14.70;99.90;;;;;;5019114;28;20440;-82
2023/04/24 08:22:41;;;;;;;2.50;0.90;;;14.60;99.90;;;;;;5021580;28;20717;-82
2023/04/24 08:25:07;;;;;;;1.80;1.20;;;13.90;99.90;;;;;;5002571;28;20459;-84
2023/04/24 08:27:33;;;;;;;3.00;1.43;;;14.50;99.90;;;;;;5024079;28;20436;-81
2023/04/24 08:29:59;;;;;;;4.57;0.93;;;;;;;;;;5005761;28;20449;-81
2023/04/24 08:32:28;;;;;;;1.50;0.90;;;;;;;;;;5000567;28;20203;-82
2023/04/24 08:34:56;;;;;;;2.67;1.25;;;13.50;99.90;;;;;;5019239;28;20477;-84
2023/04/24 08:37:22;;;;;;;6.75;1.20;;;13.00;99.90;;;;;;5020537;28;20174;-84
2023/04/24 08:39:48;;;;;;;5.20;1.38;;;12.40;99.90;;;;;;5020743;28;20196;-84
2023/04/24 08:42:15;;;;;;;1.50;1.10;;;11.40;99.90;;;;;;5021412;28;20185;-84
2023/04/24 08:44:41;;;;;;;1.85;0.75;;;11.40;99.90;;;;;;5021457;28;20249;-83
2023/04/24 08:47:07;;;;;;;1.70;0.83;;;11.20;99.90;;;;;;5020125;28;20217;-84
2023/04/24 08:49:35;;;;;;;1.00;0.88;;;12.20;99.90;;;;;;5015796;28;20181;-84
2023/04/24 08:52:02;;;;;;;2.30;1.10;;;12.20;99.90;;;;;;5020621;28;20194;-84
2023/04/24 08:54:28;;;;;;;3.30;0.88;;;12.10;99.90;;;;;;5019118;28;20678;-82
2023/04/24 08:57:00;;;;;;;1.42;1.00;;;12.00;99.90;;;;;;5020428;28;20220;-82
2023/04/24 08:59:27;;;;;;;2.97;1.20;;;12.50;99.90;;;;;;5003898;28;20188;-82
2023/04/24 09:01:54;;;;;;;1.90;0.70;;;14.20;99.90;;;;;;5003988;28;20692;-82
2023/04/24 09:04:21;;;;;;;1.23;0.80;;;14.60;99.90;;;;;;5021499;28;20444;-81
2023/04/24 09:06:48;;;;;;;2.03;1.10;;;14.80;99.90;;;;;;4999796;28;20447;-82
2023/04/24 09:09:16;;;;;;;0.97;0.90;;;15.80;99.90;;;;;;5006703;28;20460;-83
2023/04/24 09:11:42;;;;;;;3.57;1.00;;;;;;;;;;5011815;28;20503;-82
2023/04/24 09:14:09;;;;;;;1.63;0.87;;;14.20;99.90;;;;;;5020061;28;20499;-83
2023/04/24 09:16:36;;;;;;;54.67;6.67;;;13.10;99.90;;;;;;5021432;28;20806;-83
2023/04/24 09:19:02;;;;;;;162.40;17.00;;;13.20;99.90;;;;;;5021645;28;20431;-84
2023/04/24 09:21:33;;;;;;;0.77;0.70;;;12.80;99.90;;;;;;5021160;28;21109;-84
2023/04/24 09:24:03;;;;;;;3.65;1.40;;;12.10;99.90;;;;;;5021989;28;20205;-83
2023/04/24 09:26:33;;;;;;;2.25;1.25;;;13.30;99.90;;;;;;5017032;28;20198;-82
2023/04/24 09:28:59;;;;;;;2.17;1.03;;;13.30;99.90;;;;;;5019243;28;20186;-82
2023/04/24 09:31:27;;;;;;;2.30;1.03;;;12.60;99.90;;;;;;5021444;28;20448;-82
2023/04/24 09:33:55;;;;;;;1.23;1.13;;;12.40;99.90;;;;;;5021307;28;20543;-82
2023/04/24 09:36:37;;;;;;;7.47;1.67;;;13.80;99.90;;;;;;5025218;28;20209;-83
2023/04/24 09:39:21;;;;;;;2.53;1.10;;;14.10;99.90;;;;;;5025702;28;20409;-82
2023/04/24 09:41:51;;;;;;;2.70;1.50;;;15.30;99.90;;;;;;5013585;28;20547;-82
2023/04/24 09:44:24;;;;;;;3.60;1.10;;;15.20;99.90;;;;;;5016839;28;20429;-82
2023/04/24 09:46:55;;;;;;;1.80;1.23;;;15.30;99.90;;;;;;5009552;28;20432;-81
2023/04/24 09:49:26;;;;;;;1.40;1.20;;;16.80;99.90;;;;;;5017207;28;20891;-82
2023/04/24 09:51:52;;;;;;;3.03;1.40;;;;;;;;;;5022196;28;20465;-84
2023/04/24 09:54:20;;;;;;;3.97;1.47;;;17.70;99.90;;;;;;5017389;28;20463;-84
2023/04/24 09:56:48;;;;;;;2.43;1.30;;;16.90;98.70;;;;;;5022231;28;21099;-84
2023/04/24 09:59:15;;;;;;;2.70;2.00;;;15.90;99.90;;;;;;5018402;28;20516;-84
2023/04/24 10:01:44;;;;;;;2.87;1.70;;;15.20;99.90;;;;;;5017890;28;20439;-82
2023/04/24 10:04:19;;;;;;;2.37;1.80;;;14.50;99.90;;;;;;4998123;28;20441;-82
2023/04/24 10:06:46;;;;;;;3.90;2.13;;;14.50;99.90;;;;;;5018822;28;20451;-82
2023/04/24 10:09:13;;;;;;;1.83;1.48;;;13.50;99.90;;;;;;5016939;28;20437;-84
2023/04/24 10:11:42;;;;;;;4.72;1.83;;;12.70;99.90;;;;;;5021542;28;20196;-82
2023/04/24 10:14:11;;;;;;;5.65;1.40;;;12.00;99.90;;;;;;5022002;28;20213;-82
2023/04/24 10:16:39;;;;;;;1.40;1.30;;;12.00;99.90;;;;;;5024354;28;20174;-82
2023/04/24 10:19:05;;;;;;;2.95;1.70;;;12.00;99.90;;;;;;5018987;28;21246;-82
2023/04/24 10:21:31;;;;;;;2.50;2.10;;;11.80;99.90;;;;;;5006083;28;20177;-82
2023/04/24 10:23:59;;;;;;;3.35;2.03;;;11.80;99.90;;;;;;5023444;28;20441;-82
2023/04/24 10:26:27;;;;;;;3.15;1.70;;;11.90;99.90;;;;;;5023964;28;20212;-82
2023/04/24 10:28:54;;;;;;;2.30;1.55;;;11.80;99.90;;;;;;5024054;28;23583;-84
2023/04/24 10:31:21;;;;;;;2.58;2.10;;;12.10;99.90;;;;;;5024296;28;20217;-83
2023/04/24 10:33:47;;;;;;;6.30;2.35;;;12.20;99.90;;;;;;5021368;28;20210;-83
2023/04/24 10:36:14;;;;;;;4.80;2.58;;;12.50;99.90;;;;;;5019312;28;20209;-83
2023/04/24 10:38:43;;;;;;;4.85;2.15;;;12.50;99.90;;;;;;5022442;28;20247;-83
2023/04/24 10:41:15;;;;;;;6.85;3.75;;;12.40;99.90;;;;;;5019821;28;20671;-83
2023/04/24 10:43:41;;;;;;;4.20;2.00;;;12.80;99.90;;;;;;5023117;28;20205;-83
2023/04/24 10:46:09;;;;;;;10.97;3.13;;;13.40;99.90;;;;;;5004559;28;20216;-83
2023/04/24 10:48:36;;;;;;;5.95;2.05;;;13.10;99.90;;;;;;5022107;28;20425;-83
2023/04/24 10:51:01;;;;;;;6.70;2.50;;;12.90;99.90;;;;;;5022112;28;20212;-83
2023/04/24 10:53:29;;;;;;;2.77;2.00;;;12.60;99.90;;;;;;5022250;28;20206;-83
2023/04/24 10:56:13;;;;;;;6.80;2.38;;;13.10;99.90;;;;;;5007914;28;20209;-83
2023/04/24 10:58:49;;;;;;;3.47;1.45;;;13.20;99.90;;;;;;5008179;28;20186;-83
2023/04/24 11:01:33;;;;;;;2.10;1.70;;;13.40;99.90;;;;;;5024690;28;20184;-83
2023/04/24 11:04:07;;;;;;;3.77;2.20;;;13.70;99.90;;;;;;5025404;28;20440;-81
2023/04/24 11:06:37;;;;;;;2.27;1.57;;;13.80;99.90;;;;;;5024433;28;20459;-84
2023/04/24 11:09:05;;;;;;;2.33;1.92;;;13.30;99.90;;;;;;5026379;28;20512;-84
2023/04/24 11:11:32;;;;;;;6.60;1.75;;;;;;;;;;5028184;28;20187;-81
2023/04/24 11:13:57;;;;;;;3.10;2.58;;;13.10;99.90;;;;;;5024487;28;20210;-84
2023/04/24 11:16:23;;;;;;;8.47;2.70;;;13.10;99.90;;;;;;5023755;28;20263;-84
2023/04/24 11:18:59;;;;;;;7.17;2.40;;;13.00;99.90;;;;;;5009162;28;20185;-82
2023/04/24 11:21:26;;;;;;;2.25;1.45;;;12.60;99.90;;;;;;5026472;28;20193;-83
2023/04/24 11:23:51;;;;;;;6.18;2.13;;;12.40;99.90;;;;;;5026194;28;20177;-83
2023/04/24 11:26:32;;;;;;;2.40;2.03;;;12.00;99.90;;;;;;5014183;28;20386;-84
2023/04/24 11:29:07;;;;;;;3.47;2.20;;;11.90;99.90;;;;;;5026721;28;20173;-84
2023/04/24 11:31:48;;;;;;;2.10;1.90;;;12.10;99.90;;;;;;5024160;28;20201;-84
2023/04/24 11:34:14;;;;;;;2.78;2.45;;;12.60;99.90;;;;;;5010335;28;20201;-84
2023/04/24 11:36:42;;;;;;;3.85;2.60;;;12.60;99.90;;;;;;5029131;28;20178;-83
2023/04/24 11:39:08;;;;;;;3.42;2.20;;;12.60;99.90;;;;;;5031115;28;20232;-84
2023/04/24 11:41:35;;;;;;;4.00;2.80;;;12.80;99.90;;;;;;5028803;28;20190;-83
2023/04/24 11:44:02;;;;;;;2.40;1.70;;;13.70;99.90;;;;;;5028374;28;20182;-84
2023/04/24 11:46:31;;;;;;;4.63;2.20;;;13.60;99.90;;;;;;5030003;28;20452;-83
2023/04/24 11:48:57;;;;;;;8.85;1.83;;;12.50;99.90;;;;;;5029358;28;20662;-84
2023/04/24 11:51:27;;;;;;;5.20;2.25;;;12.40;99.90;;;;;;5027570;28;20178;-83
2023/04/24 11:53:54;;;;;;;4.13;2.70;;;11.80;99.90;;;;;;5027111;28;20202;-83
2023/04/24 11:56:24;;;;;;;2.92;2.63;;;11.00;99.90;;;;;;5026885;28;20286;-83
2023/04/24 11:58:53;;;;;;;3.28;1.90;;;11.00;99.90;;;;;;5032305;28;20182;-83
2023/04/24 12:01:18;;;;;;;2.90;2.28;;;11.20;99.90;;;;;;5028406;28;20174;-84
2023/04/24 12:03:48;;;;;;;3.60;2.90;;;11.70;99.90;;;;;;5024594;28;20240;-84
2023/04/24 12:06:13;;;;;;;4.43;2.13;;;12.80;99.90;;;;;;5009036;28;20202;-83
2023/04/24 12:08:39;;;;;;;2.70;2.37;;;12.90;99.90;;;;;;5012163;28;20344;-81
2023/04/24 12:11:09;;;;;;;2.70;2.13;;;13.70;99.90;;;;;;5027698;28;20246;-83
2023/04/24 12:13:36;;;;;;;2.15;1.73;;;13.30;99.90;;;;;;5029828;28;20201;-83
2023/04/24 12:16:04;;;;;;;2.70;2.30;;;13.40;99.90;;;;;;5027215;28;20202;-83
2023/04/24 12:18:30;;;;;;;2.45;2.25;;;13.50;99.90;;;;;;5026078;28;20170;-83
2023/04/24 12:21:18;;;;;;;3.03;2.65;;;12.90;99.90;;;;;;5026144;28;20174;-83
2023/04/24 12:23:47;;;;;;;3.83;2.50;;;12.00;99.90;;;;;;5025808;28;20469;-83
2023/04/24 12:26:18;;;;;;;6.78;3.17;;;12.10;99.90;;;;;;5004277;28;20218;-83
2023/04/24 12:28:47;;;;;;;4.30;2.83;;;13.00;99.90;;;;;;5025537;28;20183;-81
2023/04/24 12:31:12;;;;;;;2.58;2.15;;;15.40;99.90;;;;;;5009854;28;20190;-83
2023/04/24 12:33:38;;;;;;;2.37;2.13;;;12.30;99.90;;;;;;5023891;28;20248;-83
2023/04/24 12:36:05;;;;;;;2.70;2.40;;;11.60;99.90;;;;;;5027420;28;20206;-83
2023/04/24 12:38:31;;;;;;;4.53;3.05;;;11.30;99.90;;;;;;5025165;28;20261;-83
2023/04/24 12:41:06;;;;;;;3.90;2.50;;;11.30;99.90;;;;;;5021114;28;20268;-83
2023/04/24 12:43:32;;;;;;;2.92;2.50;;;11.50;99.90;;;;;;5023308;28;20432;-83
2023/04/24 12:45:58;;;;;;;4.60;3.30;;;11.00;99.90;;;;;;5025713;28;20752;-83
2023/04/24 12:48:28;;;;;;;4.00;3.00;;;11.30;99.90;;;;;;5012523;28;20185;-83
2023/04/24 12:50:55;;;;;;;2.47;1.77;;;11.40;99.90;;;;;;5029980;28;20174;-84
2023/04/24 12:53:20;;;;;;;5.47;3.05;;;11.60;99.90;;;;;;5027767;28;20205;-83
2023/04/24 12:55:52;;;;;;;7.77;3.67;;;11.60;99.90;;;;;;5025022;28;20744;-83
2023/04/24 12:58:18;;;;;;;4.47;2.08;;;11.60;99.90;;;;;;5022734;28;20202;-83
2023/04/24 13:00:45;;;;;;;2.20;2.00;;;11.90;99.90;;;;;;5022257;28;20187;-83
2023/04/24 13:03:11;;;;;;;2.80;2.50;;;11.90;99.90;;;;;;5023666;28;20183;-83
2023/04/24 13:05:37;;;;;;;4.93;2.85;;;11.90;99.90;;;;;;5023187;28;20217;-83
2023/04/24 13:08:02;;;;;;;5.10;2.60;;;12.40;99.90;;;;;;5023884;28;20241;-83